createdAt,value
2018-05-29T00:00:56.570Z,74288.91
2018-05-29T00:03:27.067Z,74319.27
2018-05-29T00:05:56.915Z,74311.17
2018-05-29T00:08:27.308Z,74270.70
2018-05-29T00:10:58.028Z,74270.70
2018-05-29T00:13:27.800Z,74288.91
2018-05-29T00:15:57.646Z,74265.64
2018-05-29T00:18:27.224Z,74289.92
2018-05-29T00:20:56.910Z,74294.98
2018-05-29T00:23:26.890Z,74313.20
2018-05-29T00:25:56.524Z,74322.30
2018-05-29T00:28:25.936Z,74335.45
2018-05-29T00:32:11.049Z,74313.20
2018-05-29T00:34:57.983Z,74318.25
2018-05-29T00:37:44.875Z,74326.35
2018-05-29T00:40:24.741Z,74334.45
2018-05-29T00:42:54.725Z,74279.80
2018-05-29T00:45:24.427Z,74334.45
2018-05-29T00:47:53.979Z,74292.95
2018-05-29T00:50:23.849Z,74291.95
2018-05-29T00:52:53.447Z,74298.02
2018-05-29T00:55:39.353Z,74327.36
2018-05-29T00:58:09.117Z,74316.23
2018-05-29T01:00:38.586Z,74362.78
2018-05-29T01:03:08.423Z,74351.65
2018-05-29T01:05:37.784Z,74348.61
2018-05-29T01:08:07.491Z,74313.20
2018-05-29T01:10:50.989Z,74330.39
2018-05-29T01:13:53.533Z,74362.78
2018-05-29T01:16:56.526Z,74321.29
2018-05-29T01:19:50.258Z,74305.10
2018-05-29T01:22:31.854Z,74326.35
2018-05-29T01:25:22.015Z,74272.72
2018-05-29T01:28:06.958Z,74208.98
2018-05-29T01:30:59.750Z,74202.91
2018-05-29T01:33:30.286Z,74190.77
2018-05-29T01:35:59.894Z,74181.66
2018-05-29T01:38:29.614Z,74168.51
2018-05-29T01:40:59.066Z,74184.70
2018-05-29T01:43:28.371Z,74171.55
2018-05-29T01:45:57.933Z,74152.31
2018-05-29T01:48:27.729Z,74146.25
2018-05-29T01:50:57.333Z,74175.59
2018-05-29T01:53:26.887Z,74193.80
2018-05-29T01:55:56.531Z,74190.77
2018-05-29T01:58:26.232Z,74228.20
2018-05-29T02:00:55.688Z,74233.27
2018-05-29T02:03:27.444Z,74193.80
2018-05-29T02:05:57.612Z,74170.53
2018-05-29T02:08:27.642Z,74154.34
2018-05-29T02:10:58.841Z,74192.79
2018-05-29T02:13:28.585Z,74161.42
2018-05-29T02:15:58.061Z,74159.40
2018-05-29T02:18:27.924Z,74178.63
2018-05-29T02:20:57.797Z,74170.53
2018-05-29T02:23:28.171Z,74180.65
2018-05-29T02:25:57.828Z,74207.97
2018-05-29T02:28:27.321Z,74197.84
2018-05-29T02:30:56.768Z,74233.27
2018-05-29T02:33:26.409Z,74212.02
2018-05-29T02:35:56.175Z,74192.79
2018-05-29T02:38:26.358Z,74199.88
2018-05-29T02:40:55.903Z,74183.69
2018-05-29T02:43:25.348Z,74171.55
2018-05-29T02:45:55.025Z,74175.59
2018-05-29T02:48:24.580Z,74168.51
2018-05-29T02:50:54.264Z,74178.63
2018-05-29T02:53:24.200Z,74207.97
2018-05-29T02:55:53.580Z,74208.98
2018-05-29T02:58:23.082Z,74172.55
2018-05-29T03:00:53.136Z,74226.18
2018-05-29T03:03:22.758Z,74254.51
2018-05-29T03:05:52.535Z,74249.45
2018-05-29T03:08:22.388Z,74310.16
2018-05-29T03:10:53.940Z,74337.48
2018-05-29T03:13:23.484Z,74376.94
2018-05-29T03:15:53.333Z,74386.05
2018-05-29T03:18:22.833Z,74397.18
2018-05-29T03:20:52.323Z,74398.19
2018-05-29T03:23:22.647Z,74403.25
2018-05-29T03:25:52.444Z,74400.22
2018-05-29T03:28:22.136Z,74390.09
2018-05-29T03:30:52.103Z,74367.84
2018-05-29T03:33:21.704Z,74361.77
2018-05-29T03:35:51.278Z,74337.48
2018-05-29T03:38:21.166Z,74395.16
2018-05-29T03:40:50.604Z,74377.95
2018-05-29T03:43:19.858Z,74367.84
2018-05-29T03:45:49.836Z,74394.14
2018-05-29T03:48:19.577Z,74354.69
2018-05-29T03:50:49.036Z,74372.89
2018-05-29T03:53:18.984Z,74399.20
2018-05-29T03:55:48.475Z,74391.11
2018-05-29T03:58:17.979Z,74382.00
2018-05-29T04:00:47.994Z,74328.38
2018-05-29T04:03:17.296Z,74324.33
2018-05-29T04:05:46.919Z,74307.13
2018-05-29T04:08:16.378Z,74320.28
2018-05-29T04:10:45.748Z,74345.58
2018-05-29T04:13:15.580Z,74326.35
2018-05-29T04:15:45.540Z,74329.38
2018-05-29T04:18:15.230Z,74338.49
2018-05-29T04:20:44.731Z,74338.49
2018-05-29T04:23:14.281Z,74331.41
2018-05-29T04:25:43.733Z,74318.25
2018-05-29T04:28:13.159Z,74311.17
2018-05-29T04:30:43.155Z,74297.01
2018-05-29T04:33:16.015Z,74267.66
2018-05-29T04:35:48.380Z,74233.27
2018-05-29T04:38:20.888Z,74178.63
2018-05-29T04:40:52.429Z,74160.41
2018-05-29T04:43:28.962Z,74128.03
2018-05-29T04:45:58.255Z,74080.48
2018-05-29T04:48:27.588Z,74084.53
2018-05-29T04:50:57.615Z,74046.08
2018-05-29T04:53:27.002Z,74047.09
2018-05-29T04:55:56.407Z,74016.73
2018-05-29T04:58:25.733Z,73993.47
2018-05-29T05:00:55.177Z,74006.63
2018-05-29T05:03:24.631Z,73998.53
2018-05-29T05:05:54.477Z,73971.21
2018-05-29T05:08:27.948Z,73995.49
2018-05-29T05:10:57.385Z,73991.45
2018-05-29T05:13:28.168Z,73965.14
2018-05-29T05:15:57.505Z,73956.03
2018-05-29T05:18:29.203Z,73936.81
2018-05-29T05:21:00.966Z,73928.72
2018-05-29T05:23:30.427Z,73964.13
2018-05-29T05:26:00.029Z,73975.26
2018-05-29T05:28:29.353Z,73953.00
2018-05-29T05:30:58.656Z,73918.60
2018-05-29T05:33:27.980Z,73928.72
2018-05-29T05:35:57.442Z,73870.04
2018-05-29T05:38:26.789Z,73865.99
2018-05-29T05:40:56.084Z,73903.42
2018-05-29T05:43:25.624Z,73903.42
2018-05-29T05:45:55.641Z,73935.80
2018-05-29T05:48:25.454Z,73914.55
2018-05-29T05:50:55.087Z,73873.08
2018-05-29T05:53:24.615Z,73847.78
2018-05-29T05:55:54.232Z,73863.97
2018-05-29T05:58:27.655Z,73845.76
2018-05-29T06:00:57.240Z,73873.08
2018-05-29T06:03:26.561Z,73831.59
2018-05-29T06:05:56.097Z,73836.66
2018-05-29T06:08:25.436Z,73765.83
2018-05-29T06:10:55.035Z,73805.29
2018-05-29T06:13:24.384Z,73729.41
2018-05-29T06:15:53.990Z,73768.87
2018-05-29T06:18:23.611Z,73854.86
2018-05-29T06:20:53.070Z,73793.15
2018-05-29T06:23:22.994Z,73727.39
2018-05-29T06:25:52.684Z,73699.06
2018-05-29T06:28:22.620Z,73688.95
2018-05-29T06:30:52.229Z,73643.42
2018-05-29T06:33:22.106Z,73602.95
2018-05-29T06:35:51.571Z,73668.72
2018-05-29T06:38:21.257Z,73598.91
2018-05-29T06:40:51.277Z,73585.76
2018-05-29T06:43:20.647Z,73540.23
2018-05-29T06:45:50.061Z,73649.49
2018-05-29T06:48:19.611Z,73593.85
2018-05-29T06:50:49.202Z,73558.45
2018-05-29T06:53:18.466Z,73532.14
2018-05-29T06:55:48.240Z,73568.56
2018-05-29T06:58:17.975Z,73501.80
2018-05-29T07:00:48.216Z,73518.99
2018-05-29T07:03:18.329Z,73452.23
2018-05-29T07:05:47.891Z,73432.00
2018-05-29T07:08:17.400Z,73413.79
2018-05-29T07:10:47.435Z,73513.94
2018-05-29T07:13:16.936Z,73358.16
2018-05-29T07:15:46.199Z,73471.45
2018-05-29T07:18:15.967Z,73320.72
2018-05-29T07:20:45.527Z,73370.29
2018-05-29T07:23:15.108Z,73383.44
2018-05-29T07:25:45.127Z,73398.61
2018-05-29T07:28:14.982Z,73251.94
2018-05-29T07:30:44.461Z,73212.49
2018-05-29T07:33:14.176Z,73262.05
2018-05-29T07:35:43.856Z,73261.05
2018-05-29T07:38:13.652Z,73196.30
2018-05-29T07:40:43.124Z,73222.61
2018-05-29T07:43:12.554Z,73358.16
2018-05-29T07:45:42.437Z,73297.45
2018-05-29T07:48:11.789Z,73345.00
2018-05-29T07:50:41.217Z,73334.88
2018-05-29T07:53:10.556Z,73180.13
2018-05-29T07:55:40.107Z,73164.95
2018-05-29T07:58:09.456Z,73064.81
2018-05-29T08:00:39.068Z,73204.40
2018-05-29T08:03:08.375Z,73095.16
2018-05-29T08:05:37.673Z,73138.65
2018-05-29T08:08:07.479Z,73205.41
2018-05-29T08:10:36.905Z,73130.56
2018-05-29T08:13:06.721Z,73192.27
2018-05-29T08:15:36.493Z,73073.91
2018-05-29T08:18:06.261Z,73022.33
2018-05-29T08:20:36.270Z,73020.31
2018-05-29T08:23:07.540Z,73002.10
2018-05-29T08:25:37.312Z,73049.64
2018-05-29T08:28:06.848Z,73139.66
2018-05-29T08:30:36.401Z,72990.98
2018-05-29T08:33:05.859Z,72928.27
2018-05-29T08:35:35.321Z,72977.83
2018-05-29T08:38:06.147Z,72985.92
2018-05-29T08:40:35.517Z,73010.19
2018-05-29T08:43:05.103Z,72944.45
2018-05-29T08:45:34.435Z,72890.84
2018-05-29T08:48:04.062Z,72971.76
2018-05-29T08:50:34.037Z,72905.00
2018-05-29T08:53:03.989Z,72913.09
2018-05-29T08:55:33.567Z,72894.89
2018-05-29T08:58:02.908Z,72918.16
2018-05-29T09:00:32.260Z,72927.25
2018-05-29T09:03:01.565Z,72932.31
2018-05-29T09:05:31.268Z,72810.94
2018-05-29T09:08:01.558Z,72906.02
2018-05-29T09:10:30.856Z,72873.65
2018-05-29T09:13:00.272Z,72803.86
2018-05-29T09:15:29.659Z,72841.28
2018-05-29T09:17:59.095Z,72801.84
2018-05-29T09:20:28.522Z,72997.05
2018-05-29T09:22:58.413Z,72862.52
2018-05-29T09:25:28.007Z,72788.69
2018-05-29T09:27:57.501Z,73036.48
2018-05-29T09:30:27.280Z,72830.16
2018-05-29T09:32:56.575Z,72775.55
2018-05-29T09:35:26.148Z,72750.26
2018-05-29T09:37:56.407Z,72837.23
2018-05-29T09:40:26.013Z,72791.72
2018-05-29T09:42:55.565Z,72749.25
2018-05-29T09:45:25.595Z,72800.83
2018-05-29T09:47:55.163Z,72882.75
2018-05-29T09:50:24.526Z,72804.88
2018-05-29T09:52:54.088Z,72912.08
2018-05-29T09:55:23.551Z,72735.09
2018-05-29T09:57:53.185Z,72714.86
2018-05-29T10:00:27.098Z,72740.14
2018-05-29T10:02:56.475Z,72775.55
2018-05-29T10:05:25.784Z,72742.17
2018-05-29T10:07:55.537Z,72982.88
2018-05-29T10:10:24.854Z,72867.58
2018-05-29T10:12:54.656Z,72744.19
2018-05-29T10:15:24.899Z,72737.11
2018-05-29T10:17:54.295Z,72760.38
2018-05-29T10:20:24.222Z,72673.39
2018-05-29T10:22:54.244Z,72644.06
2018-05-29T10:25:23.507Z,72684.52
2018-05-29T10:27:53.172Z,72921.19
2018-05-29T10:30:23.055Z,72738.13
2018-05-29T10:32:52.860Z,72612.72
2018-05-29T10:35:22.495Z,72620.80
2018-05-29T10:37:52.487Z,72611.70
2018-05-29T10:40:21.866Z,72565.18
2018-05-29T10:42:51.604Z,72668.34
2018-05-29T10:45:21.347Z,72602.60
2018-05-29T10:47:50.720Z,72763.41
2018-05-29T10:50:19.948Z,72655.19
2018-05-29T10:52:49.784Z,72651.14
2018-05-29T10:55:19.212Z,72672.38
2018-05-29T10:57:48.691Z,72582.38
2018-05-29T11:00:18.530Z,72583.39
2018-05-29T11:02:47.903Z,72586.42
2018-05-29T11:05:17.255Z,72502.48
2018-05-29T11:07:46.791Z,72550.02
2018-05-29T11:10:16.260Z,72661.26
2018-05-29T11:12:45.616Z,72659.23
2018-05-29T11:15:15.608Z,72667.33
2018-05-29T11:17:44.920Z,72559.11
2018-05-29T11:20:14.343Z,72532.81
2018-05-29T11:22:43.633Z,72521.70
2018-05-29T11:25:12.993Z,72452.92
2018-05-29T11:27:42.380Z,72542.93
2018-05-29T11:30:13.132Z,72420.56
2018-05-29T11:32:42.592Z,72365.95
2018-05-29T11:35:13.105Z,72400.34
2018-05-29T11:37:42.518Z,72534.84
2018-05-29T11:40:12.046Z,72480.23
2018-05-29T11:42:41.416Z,72440.79
2018-05-29T11:45:10.772Z,72607.66
2018-05-29T11:47:40.125Z,72451.91
2018-05-29T11:50:09.935Z,72494.39
2018-05-29T11:52:39.265Z,72409.44
2018-05-29T11:55:08.559Z,72319.44
2018-05-29T11:57:38.393Z,72328.54
2018-05-29T12:00:08.522Z,72523.72
2018-05-29T12:02:39.722Z,72425.63
2018-05-29T12:05:09.479Z,72322.47
2018-05-29T12:07:41.688Z,72353.82
2018-05-29T12:10:13.620Z,72519.67
2018-05-29T12:15:51.991Z,72522.70
2018-05-29T12:18:25.833Z,72524.73
2018-05-29T12:21:00.098Z,72640.02
2018-05-29T12:23:33.382Z,72657.21
2018-05-29T12:26:03.435Z,72620.80
2018-05-29T12:28:33.798Z,72671.38
2018-05-29T12:31:04.327Z,72855.45
2018-05-29T12:33:34.628Z,72729.02
2018-05-29T12:36:06.265Z,72699.69
2018-05-29T12:38:36.903Z,72750.26
2018-05-29T12:41:12.375Z,72648.11
2018-05-29T12:43:42.095Z,72750.26
2018-05-29T12:46:12.320Z,72752.28
2018-05-29T12:48:43.512Z,72767.45
2018-05-29T12:51:17.623Z,72705.76
2018-05-29T12:53:47.281Z,72660.25
2018-05-29T12:56:17.024Z,72822.06
2018-05-29T12:58:49.777Z,72759.36
2018-05-29T13:01:19.390Z,72809.93
2018-05-29T13:03:50.337Z,72804.88
2018-05-29T13:06:21.822Z,72714.86
2018-05-29T13:08:55.899Z,72662.27
2018-05-29T13:11:26.741Z,72705.76
2018-05-29T13:13:56.201Z,72664.30
2018-05-29T13:16:25.924Z,72810.94
2018-05-29T13:18:55.301Z,72851.40
2018-05-29T13:21:24.673Z,72771.50
2018-05-29T13:23:54.021Z,72761.38
2018-05-29T13:26:23.483Z,72768.47
2018-05-29T13:28:52.780Z,72782.63
2018-05-29T13:31:22.644Z,72772.51
2018-05-29T13:33:52.107Z,72747.23
2018-05-29T13:36:21.723Z,72802.84
2018-05-29T13:38:51.252Z,72840.27
2018-05-29T13:41:20.648Z,72830.16
2018-05-29T13:43:50.116Z,72788.69
2018-05-29T13:46:19.641Z,72825.10
2018-05-29T13:48:49.084Z,72783.63
2018-05-29T13:51:18.789Z,72748.23
2018-05-29T13:53:48.239Z,72643.05
2018-05-29T13:56:18.048Z,72640.02
2018-05-29T13:58:49.640Z,72656.20
2018-05-29T14:01:19.264Z,72692.61
2018-05-29T14:03:48.746Z,72579.34
2018-05-29T14:06:19.958Z,72541.92
2018-05-29T14:08:49.595Z,72602.60
2018-05-29T14:11:19.640Z,72647.09
2018-05-29T14:13:49.417Z,72601.59
2018-05-29T14:16:18.980Z,72680.47
2018-05-29T14:18:50.147Z,72590.47
2018-05-29T14:21:21.012Z,72689.58
2018-05-29T14:23:51.660Z,72695.64
2018-05-29T14:26:21.934Z,72753.30
2018-05-29T14:28:51.531Z,72668.34
2018-05-29T14:31:21.196Z,72660.25
2018-05-29T14:33:51.872Z,72669.35
2018-05-29T14:36:23.912Z,72684.52
2018-05-29T14:38:53.405Z,72688.56
2018-05-29T14:41:23.182Z,72612.72
2018-05-29T14:43:53.161Z,72657.21
2018-05-29T14:46:23.040Z,72583.39
2018-05-29T14:48:56.644Z,72644.06
2018-05-29T14:51:27.528Z,72570.23
2018-05-29T14:53:57.206Z,72563.16
2018-05-29T14:56:28.189Z,72608.67
2018-05-29T14:58:58.937Z,72575.30
2018-05-29T15:01:30.894Z,72533.83
2018-05-29T15:04:00.837Z,72617.77
2018-05-29T15:06:30.298Z,72579.34
2018-05-29T15:09:00.095Z,72577.31
2018-05-29T15:11:30.574Z,72562.14
2018-05-29T15:14:01.008Z,72535.85
2018-05-29T15:16:30.857Z,72533.83
2018-05-29T15:19:00.401Z,72578.33
2018-05-29T15:21:30.977Z,72681.48
2018-05-29T15:24:04.732Z,72568.22
2018-05-29T15:26:35.493Z,72552.03
2018-05-29T15:29:06.004Z,72635.97
2018-05-29T15:31:38.576Z,72712.84
2018-05-29T15:34:14.836Z,72677.44
2018-05-29T15:36:46.353Z,72671.38
2018-05-29T15:39:18.568Z,72675.42
2018-05-29T15:41:50.296Z,72656.20
2018-05-29T15:44:21.821Z,72720.93
2018-05-29T15:46:51.965Z,72697.66
2018-05-29T15:49:23.097Z,72676.42
2018-05-29T15:51:52.663Z,72709.80
2018-05-29T15:54:22.506Z,72624.85
2018-05-29T15:56:52.966Z,72585.41
2018-05-29T15:59:22.426Z,72634.97
2018-05-29T16:01:52.742Z,72671.38
2018-05-29T16:04:22.979Z,72586.42
2018-05-29T16:06:52.849Z,72495.41
2018-05-29T16:09:22.815Z,72493.38
2018-05-29T16:11:52.506Z,72587.43
2018-05-29T16:14:22.473Z,72596.53
2018-05-29T16:16:53.011Z,72570.23
2018-05-29T16:19:23.039Z,72655.19
2018-05-29T16:21:53.618Z,72604.63
2018-05-29T16:24:25.729Z,72690.59
2018-05-29T16:26:55.319Z,72682.50
2018-05-29T16:29:26.339Z,72716.88
2018-05-29T16:31:56.077Z,72649.13
2018-05-29T16:34:25.743Z,72698.68
2018-05-29T16:36:55.384Z,72741.16
2018-05-29T16:39:24.922Z,72716.88
2018-05-29T16:41:54.872Z,72707.78
2018-05-29T16:44:24.675Z,72706.77
2018-05-29T16:46:54.179Z,72684.52
2018-05-29T16:49:23.522Z,72724.97
2018-05-29T16:51:52.888Z,72719.92
2018-05-29T16:54:25.561Z,72703.73
2018-05-29T16:56:55.557Z,72706.77
2018-05-29T16:59:25.081Z,72749.25
2018-05-29T17:01:54.869Z,72796.78
2018-05-29T17:04:27.288Z,72794.76
2018-05-29T17:06:56.841Z,72812.97
2018-05-29T17:09:26.174Z,72829.15
2018-05-29T17:11:55.920Z,72797.80
2018-05-29T17:14:26.022Z,72824.09
2018-05-29T17:16:58.931Z,72804.88
2018-05-29T17:19:32.217Z,72838.25
2018-05-29T17:22:02.308Z,72851.40
2018-05-29T17:24:31.720Z,72798.80
2018-05-29T17:27:02.648Z,72755.31
2018-05-29T17:29:34.137Z,72708.80
2018-05-29T17:32:04.030Z,72701.71
2018-05-29T17:34:35.041Z,72721.94
2018-05-29T17:37:06.911Z,72733.06
2018-05-29T17:39:36.505Z,72723.96
2018-05-29T17:42:07.711Z,72743.18
2018-05-29T17:44:38.179Z,72733.06
2018-05-29T17:47:08.009Z,72741.16
2018-05-29T17:49:37.697Z,72774.53
2018-05-29T17:52:07.879Z,72788.69
2018-05-29T17:54:41.424Z,72775.55
2018-05-29T17:57:12.283Z,72773.52
2018-05-29T17:59:47.830Z,72775.55
2018-05-29T18:02:19.890Z,72778.58
2018-05-29T18:04:52.225Z,72817.02
2018-05-29T18:07:21.812Z,72807.91
2018-05-29T18:09:52.207Z,72832.18
2018-05-29T18:12:21.689Z,72828.14
2018-05-29T18:14:51.030Z,72854.44
2018-05-29T18:17:20.750Z,72843.31
2018-05-29T18:19:50.125Z,72854.44
2018-05-29T18:22:21.365Z,72856.45
2018-05-29T18:24:51.285Z,72874.66
2018-05-29T18:27:20.952Z,72887.81
2018-05-29T18:29:53.127Z,72897.92
2018-05-29T18:32:25.789Z,72880.73
2018-05-29T18:34:58.923Z,72898.94
2018-05-29T18:37:29.659Z,72903.99
2018-05-29T18:39:59.449Z,72914.11
2018-05-29T18:42:29.011Z,72922.20
2018-05-29T18:45:01.715Z,72944.45
2018-05-29T18:47:31.716Z,72957.59
2018-05-29T18:50:02.282Z,72993.00
2018-05-29T18:52:32.656Z,73001.09
2018-05-29T18:55:04.535Z,72986.93
2018-05-29T18:57:34.288Z,72980.86
2018-05-29T19:00:03.641Z,72977.83
2018-05-29T19:02:32.971Z,73013.23
2018-05-29T19:05:02.632Z,73004.13
2018-05-29T19:07:32.320Z,73015.25
2018-05-29T19:10:15.199Z,73064.81
2018-05-29T19:12:45.530Z,73092.13
2018-05-29T19:15:15.664Z,73082.01
2018-05-29T19:17:45.030Z,73068.86
2018-05-29T19:20:15.505Z,73117.41
2018-05-29T19:22:47.163Z,73154.84
2018-05-29T19:25:18.263Z,73186.19
2018-05-29T19:27:48.880Z,73188.22
2018-05-29T19:30:19.974Z,73203.39
2018-05-29T19:32:50.220Z,73187.20
2018-05-29T19:35:21.585Z,73157.87
2018-05-29T19:37:51.573Z,73213.50
2018-05-29T19:40:23.093Z,73235.75
2018-05-29T19:42:52.734Z,73218.56
2018-05-29T19:45:22.763Z,73218.56
2018-05-29T19:47:52.245Z,73266.10
2018-05-29T19:50:22.591Z,73275.20
2018-05-29T19:52:53.049Z,73323.76
2018-05-29T19:55:22.985Z,73302.52
2018-05-29T19:57:52.348Z,73314.66
2018-05-29T20:00:21.725Z,73266.10
2018-05-29T20:02:51.777Z,73262.05
2018-05-29T20:05:26.649Z,73350.06
2018-05-29T20:08:00.103Z,73321.73
2018-05-29T20:10:29.942Z,73386.48
2018-05-29T20:12:59.715Z,73413.79
2018-05-29T20:15:29.328Z,73470.44
2018-05-29T20:17:59.093Z,73492.69
2018-05-29T20:20:29.777Z,73677.82
2018-05-29T20:22:59.150Z,73715.25
2018-05-29T20:25:29.393Z,73813.38
2018-05-29T20:27:58.867Z,73758.75
2018-05-29T20:30:28.539Z,73730.42
2018-05-29T20:32:58.426Z,73741.55
2018-05-29T20:35:29.701Z,73767.86
2018-05-29T20:37:59.407Z,73723.34
2018-05-29T20:40:31.502Z,73729.41
2018-05-29T20:43:02.572Z,73730.42
2018-05-29T20:45:33.504Z,73715.25
2018-05-29T20:48:04.280Z,73710.19
2018-05-29T20:50:34.360Z,73731.44
2018-05-29T20:53:04.519Z,73744.59
2018-05-29T20:55:34.399Z,73736.50
2018-05-29T20:58:04.081Z,73733.46
2018-05-29T21:00:33.685Z,73765.83
2018-05-29T21:03:03.392Z,73900.39
2018-05-29T21:05:33.165Z,74000.55
2018-05-29T21:08:03.000Z,73831.59
2018-05-29T21:10:32.756Z,73813.38
2018-05-29T21:13:02.776Z,73806.30
2018-05-29T21:15:33.441Z,73791.13
2018-05-29T21:18:03.994Z,73752.69
2018-05-29T21:20:34.427Z,73728.41
2018-05-29T21:23:03.871Z,73676.81
2018-05-29T21:25:33.557Z,73669.73
2018-05-29T21:28:02.981Z,73704.13
2018-05-29T21:30:32.752Z,73708.17
2018-05-29T21:33:02.984Z,73737.51
2018-05-29T21:35:32.568Z,73742.56
2018-05-29T21:38:01.879Z,73726.38
2018-05-29T21:40:31.681Z,73729.41
2018-05-29T21:43:01.197Z,73737.51
2018-05-29T21:45:30.688Z,73722.33
2018-05-29T21:48:00.555Z,73749.64
2018-05-29T21:50:30.286Z,73739.53
2018-05-29T21:53:00.174Z,73723.34
2018-05-29T21:55:30.470Z,73792.14
2018-05-29T21:57:59.855Z,73778.98
2018-05-29T22:00:29.758Z,73749.64
2018-05-29T22:02:59.566Z,73750.66
2018-05-29T22:05:29.787Z,73753.70
2018-05-29T22:07:59.230Z,73757.73
2018-05-29T22:10:28.708Z,73749.64
2018-05-29T22:12:58.254Z,73749.64
2018-05-29T22:15:28.390Z,73753.70
2018-05-29T22:17:58.011Z,73750.66
2018-05-29T22:20:27.572Z,73742.56
2018-05-29T22:22:57.024Z,73757.73
2018-05-29T22:25:26.687Z,73772.92
2018-05-29T22:27:56.368Z,73780.00
2018-05-29T22:30:25.698Z,73769.88
2018-05-29T22:32:55.589Z,73787.08
2018-05-29T22:35:25.239Z,73784.05
2018-05-29T22:37:54.596Z,73794.16
2018-05-29T22:40:24.145Z,73800.23
2018-05-29T22:42:54.404Z,73800.23
2018-05-29T22:45:24.072Z,73803.27
2018-05-29T22:47:53.363Z,73803.27
2018-05-29T22:50:22.676Z,73796.19
2018-05-29T22:52:52.835Z,73807.31
2018-05-29T22:55:22.314Z,73833.62
2018-05-29T22:57:55.202Z,73841.71
2018-05-29T23:00:24.852Z,73808.33
2018-05-29T23:02:54.107Z,73799.22
2018-05-29T23:05:23.495Z,73802.25
2018-05-29T23:07:52.856Z,73819.45
2018-05-29T23:10:22.124Z,73809.34
2018-05-29T23:12:51.701Z,73815.41
2018-05-29T23:15:21.271Z,73810.34
2018-05-29T23:17:50.914Z,73830.58
2018-05-29T23:20:20.332Z,73838.67
2018-05-29T23:22:49.883Z,73825.52
2018-05-29T23:25:19.155Z,73833.62
2018-05-29T23:27:48.436Z,73833.62
2018-05-29T23:30:17.763Z,73822.48
2018-05-29T23:32:47.295Z,73820.47
2018-05-29T23:35:16.904Z,73831.59
2018-05-29T23:37:47.084Z,73837.66
2018-05-29T23:40:16.609Z,73837.66
2018-05-29T23:42:46.284Z,73847.78
2018-05-29T23:45:15.963Z,73849.80
2018-05-29T23:47:45.515Z,73853.85
2018-05-29T23:50:15.221Z,73893.31
2018-05-29T23:52:45.152Z,73865.99
2018-05-29T23:55:14.612Z,73878.13
2018-05-29T23:57:44.244Z,73871.05
